sensor_id;sensor_type;location;lat;lon;timestamp;P1;durP1;ratioP1;P2;durP2;ratioP2
10144;SDS011;5113;41.822;23.564;2022-10-16T00:01:43;29.63;;;13.80;;
10144;SDS011;5113;41.822;23.564;2022-10-16T00:04:50;21.93;;;9.10;;
10144;SDS011;5113;41.822;23.564;2022-10-16T00:07:57;9.43;;;6.20;;
10144;SDS011;5113;41.822;23.564;2022-10-16T00:11:04;11.00;;;6.60;;
10144;SDS011;5113;41.822;23.564;2022-10-16T00:14:12;11.73;;;6.03;;
10144;SDS011;5113;41.822;23.564;2022-10-16T00:17:19;8.03;;;5.63;;
10144;SDS011;5113;41.822;23.564;2022-10-16T00:20:26;6.80;;;5.67;;
10144;SDS011;5113;41.822;23.564;2022-10-16T00:23:34;5.57;;;4.77;;
10144;SDS011;5113;41.822;23.564;2022-10-16T00:26:40;5.90;;;4.83;;
10144;SDS011;5113;41.822;23.564;2022-10-16T00:29:49;8.63;;;4.30;;
10144;SDS011;5113;41.822;23.564;2022-10-16T00:32:56;5.23;;;4.23;;
10144;SDS011;5113;41.822;23.564;2022-10-16T00:36:02;4.13;;;3.70;;
10144;SDS011;5113;41.822;23.564;2022-10-16T00:39:12;4.23;;;3.93;;
10144;SDS011;5113;41.822;23.564;2022-10-16T00:42:18;6.67;;;4.17;;
10144;SDS011;5113;41.822;23.564;2022-10-16T00:45:25;5.83;;;4.53;;
10144;SDS011;5113;41.822;23.564;2022-10-16T00:48:31;7.67;;;5.37;;
10144;SDS011;5113;41.822;23.564;2022-10-16T00:51:39;19.10;;;8.73;;
10144;SDS011;5113;41.822;23.564;2022-10-16T00:54:47;10.63;;;7.40;;
10144;SDS011;5113;41.822;23.564;2022-10-16T00:57:55;6.87;;;5.60;;
10144;SDS011;5113;41.822;23.564;2022-10-16T01:01:03;5.83;;;5.33;;
10144;SDS011;5113;41.822;23.564;2022-10-16T01:04:09;7.50;;;5.47;;
10144;SDS011;5113;41.822;23.564;2022-10-16T01:07:17;8.37;;;6.27;;
10144;SDS011;5113;41.822;23.564;2022-10-16T01:10:34;23.07;;;13.33;;
10144;SDS011;5113;41.822;23.564;2022-10-16T01:13:45;12.03;;;6.97;;
10144;SDS011;5113;41.822;23.564;2022-10-16T01:16:58;7.20;;;6.30;;
10144;SDS011;5113;41.822;23.564;2022-10-16T01:20:10;6.60;;;6.00;;
10144;SDS011;5113;41.822;23.564;2022-10-16T01:23:29;9.20;;;5.57;;
10144;SDS011;5113;41.822;23.564;2022-10-16T01:26:50;8.30;;;6.60;;
10144;SDS011;5113;41.822;23.564;2022-10-16T01:30:11;6.67;;;5.97;;
10144;SDS011;5113;41.822;23.564;2022-10-16T01:33:23;6.47;;;5.53;;
10144;SDS011;5113;41.822;23.564;2022-10-16T01:36:35;7.73;;;6.23;;
10144;SDS011;5113;41.822;23.564;2022-10-16T01:39:45;9.57;;;6.10;;
10144;SDS011;5113;41.822;23.564;2022-10-16T01:42:56;14.77;;;7.53;;
10144;SDS011;5113;41.822;23.564;2022-10-16T01:46:06;6.87;;;6.17;;
10144;SDS011;5113;41.822;23.564;2022-10-16T01:49:15;8.30;;;6.70;;
10144;SDS011;5113;41.822;23.564;2022-10-16T01:52:23;13.47;;;7.97;;
10144;SDS011;5113;41.822;23.564;2022-10-16T01:55:35;9.37;;;7.00;;
10144;SDS011;5113;41.822;23.564;2022-10-16T01:58:47;7.70;;;5.80;;
10144;SDS011;5113;41.822;23.564;2022-10-16T02:01:59;20.53;;;11.40;;
10144;SDS011;5113;41.822;23.564;2022-10-16T02:05:10;7.73;;;6.67;;
10144;SDS011;5113;41.822;23.564;2022-10-16T02:08:22;5.63;;;5.03;;
10144;SDS011;5113;41.822;23.564;2022-10-16T02:11:30;9.37;;;6.83;;
10144;SDS011;5113;41.822;23.564;2022-10-16T02:14:38;8.07;;;6.23;;
10144;SDS011;5113;41.822;23.564;2022-10-16T02:17:45;8.27;;;4.97;;
10144;SDS011;5113;41.822;23.564;2022-10-16T02:20:52;6.63;;;4.30;;
10144;SDS011;5113;41.822;23.564;2022-10-16T02:24:02;5.70;;;5.20;;
10144;SDS011;5113;41.822;23.564;2022-10-16T02:27:16;184.10;;;102.50;;
10144;SDS011;5113;41.822;23.564;2022-10-16T02:30:30;30.23;;;23.13;;
10144;SDS011;5113;41.822;23.564;2022-10-16T02:33:41;19.97;;;16.47;;
10144;SDS011;5113;41.822;23.564;2022-10-16T02:36:50;11.37;;;8.97;;
10144;SDS011;5113;41.822;23.564;2022-10-16T02:39:59;13.60;;;10.93;;
10144;SDS011;5113;41.822;23.564;2022-10-16T02:43:07;11.37;;;8.43;;
10144;SDS011;5113;41.822;23.564;2022-10-16T02:46:15;10.00;;;8.53;;
10144;SDS011;5113;41.822;23.564;2022-10-16T02:49:23;12.00;;;7.90;;
10144;SDS011;5113;41.822;23.564;2022-10-16T02:52:29;8.63;;;5.63;;
10144;SDS011;5113;41.822;23.564;2022-10-16T02:55:35;6.13;;;5.27;;
10144;SDS011;5113;41.822;23.564;2022-10-16T02:58:42;5.27;;;4.77;;
10144;SDS011;5113;41.822;23.564;2022-10-16T03:01:49;4.33;;;3.93;;
10144;SDS011;5113;41.822;23.564;2022-10-16T03:04:55;4.57;;;4.17;;
10144;SDS011;5113;41.822;23.564;2022-10-16T03:08:01;10.43;;;6.73;;
10144;SDS011;5113;41.822;23.564;2022-10-16T03:11:08;10.33;;;5.90;;
10144;SDS011;5113;41.822;23.564;2022-10-16T03:14:14;5.60;;;4.80;;
10144;SDS011;5113;41.822;23.564;2022-10-16T03:17:21;8.80;;;5.57;;
10144;SDS011;5113;41.822;23.564;2022-10-16T03:20:28;5.23;;;4.80;;
10144;SDS011;5113;41.822;23.564;2022-10-16T03:23:34;7.30;;;5.37;;
10144;SDS011;5113;41.822;23.564;2022-10-16T03:26:40;6.67;;;6.07;;
10144;SDS011;5113;41.822;23.564;2022-10-16T03:29:47;9.67;;;6.13;;
10144;SDS011;5113;41.822;23.564;2022-10-16T03:32:55;8.63;;;7.30;;
10144;SDS011;5113;41.822;23.564;2022-10-16T03:36:01;13.90;;;9.43;;
10144;SDS011;5113;41.822;23.564;2022-10-16T03:39:07;8.63;;;6.93;;
10144;SDS011;5113;41.822;23.564;2022-10-16T03:42:13;19.70;;;11.63;;
10144;SDS011;5113;41.822;23.564;2022-10-16T03:45:19;10.03;;;7.40;;
10144;SDS011;5113;41.822;23.564;2022-10-16T03:48:27;10.93;;;7.00;;
10144;SDS011;5113;41.822;23.564;2022-10-16T03:51:34;8.47;;;6.90;;
10144;SDS011;5113;41.822;23.564;2022-10-16T03:54:41;29.23;;;14.43;;
10144;SDS011;5113;41.822;23.564;2022-10-16T03:57:47;59.30;;;29.43;;
10144;SDS011;5113;41.822;23.564;2022-10-16T04:00:53;11.87;;;8.30;;
10144;SDS011;5113;41.822;23.564;2022-10-16T04:04:01;16.33;;;10.30;;
10144;SDS011;5113;41.822;23.564;2022-10-16T04:07:07;26.97;;;13.97;;
10144;SDS011;5113;41.822;23.564;2022-10-16T04:10:13;19.73;;;10.80;;
10144;SDS011;5113;41.822;23.564;2022-10-16T04:13:19;32.33;;;17.87;;
10144;SDS011;5113;41.822;23.564;2022-10-16T04:16:25;46.27;;;19.67;;
10144;SDS011;5113;41.822;23.564;2022-10-16T04:19:33;47.30;;;29.63;;
10144;SDS011;5113;41.822;23.564;2022-10-16T04:22:39;69.90;;;41.40;;
10144;SDS011;5113;41.822;23.564;2022-10-16T04:25:46;43.37;;;24.23;;
10144;SDS011;5113;41.822;23.564;2022-10-16T04:28:52;44.70;;;20.93;;
10144;SDS011;5113;41.822;23.564;2022-10-16T04:31:58;37.20;;;21.20;;
10144;SDS011;5113;41.822;23.564;2022-10-16T04:35:06;73.63;;;33.10;;
10144;SDS011;5113;41.822;23.564;2022-10-16T04:38:13;88.43;;;38.40;;
10144;SDS011;5113;41.822;23.564;2022-10-16T04:41:19;98.23;;;44.77;;
10144;SDS011;5113;41.822;23.564;2022-10-16T04:44:26;78.30;;;33.63;;
10144;SDS011;5113;41.822;23.564;2022-10-16T04:47:32;50.07;;;25.30;;
10144;SDS011;5113;41.822;23.564;2022-10-16T04:50:40;39.80;;;21.00;;
10144;SDS011;5113;41.822;23.564;2022-10-16T04:53:46;86.27;;;38.67;;
10144;SDS011;5113;41.822;23.564;2022-10-16T04:56:52;81.60;;;38.77;;
10144;SDS011;5113;41.822;23.564;2022-10-16T04:59:59;70.27;;;35.93;;
10144;SDS011;5113;41.822;23.564;2022-10-16T05:03:05;67.50;;;34.03;;
10144;SDS011;5113;41.822;23.564;2022-10-16T05:06:14;40.90;;;24.63;;
10144;SDS011;5113;41.822;23.564;2022-10-16T05:09:20;44.27;;;22.57;;
10144;SDS011;5113;41.822;23.564;2022-10-16T05:12:26;57.77;;;26.67;;
10144;SDS011;5113;41.822;23.564;2022-10-16T05:15:33;49.40;;;24.83;;
10144;SDS011;5113;41.822;23.564;2022-10-16T05:18:39;27.30;;;19.10;;
10144;SDS011;5113;41.822;23.564;2022-10-16T05:21:47;20.27;;;12.30;;
10144;SDS011;5113;41.822;23.564;2022-10-16T05:24:53;12.53;;;9.43;;
10144;SDS011;5113;41.822;23.564;2022-10-16T05:27:59;22.10;;;14.10;;
10144;SDS011;5113;41.822;23.564;2022-10-16T05:31:05;34.50;;;17.47;;
10144;SDS011;5113;41.822;23.564;2022-10-16T05:34:12;55.87;;;27.37;;
10144;SDS011;5113;41.822;23.564;2022-10-16T05:37:20;33.17;;;18.47;;
10144;SDS011;5113;41.822;23.564;2022-10-16T05:40:26;39.50;;;23.13;;
10144;SDS011;5113;41.822;23.564;2022-10-16T05:43:33;32.80;;;19.50;;
10144;SDS011;5113;41.822;23.564;2022-10-16T05:46:39;27.03;;;18.23;;
10144;SDS011;5113;41.822;23.564;2022-10-16T05:49:45;43.70;;;24.97;;
10144;SDS011;5113;41.822;23.564;2022-10-16T05:52:53;57.43;;;31.20;;
10144;SDS011;5113;41.822;23.564;2022-10-16T05:56:00;27.00;;;17.37;;
10144;SDS011;5113;41.822;23.564;2022-10-16T05:59:06;12.90;;;10.37;;
10144;SDS011;5113;41.822;23.564;2022-10-16T06:02:12;41.30;;;24.10;;
10144;SDS011;5113;41.822;23.564;2022-10-16T06:05:19;62.70;;;27.57;;
10144;SDS011;5113;41.822;23.564;2022-10-16T06:08:27;43.77;;;23.27;;
10144;SDS011;5113;41.822;23.564;2022-10-16T06:11:33;41.50;;;23.23;;
10144;SDS011;5113;41.822;23.564;2022-10-16T06:14:39;25.37;;;15.07;;
10144;SDS011;5113;41.822;23.564;2022-10-16T06:17:46;96.57;;;36.07;;
10144;SDS011;5113;41.822;23.564;2022-10-16T06:20:52;52.17;;;25.90;;
10144;SDS011;5113;41.822;23.564;2022-10-16T06:24:00;58.97;;;27.30;;
10144;SDS011;5113;41.822;23.564;2022-10-16T06:27:07;40.03;;;21.67;;
10144;SDS011;5113;41.822;23.564;2022-10-16T06:30:14;31.77;;;17.53;;
10144;SDS011;5113;41.822;23.564;2022-10-16T06:33:20;15.13;;;11.33;;
10144;SDS011;5113;41.822;23.564;2022-10-16T06:36:26;16.17;;;9.97;;
10144;SDS011;5113;41.822;23.564;2022-10-16T06:39:34;13.77;;;11.47;;
10144;SDS011;5113;41.822;23.564;2022-10-16T06:42:41;17.17;;;9.50;;
10144;SDS011;5113;41.822;23.564;2022-10-16T06:45:50;20.37;;;9.07;;
10144;SDS011;5113;41.822;23.564;2022-10-16T06:48:57;11.60;;;8.03;;
10144;SDS011;5113;41.822;23.564;2022-10-16T06:52:03;12.50;;;8.23;;
10144;SDS011;5113;41.822;23.564;2022-10-16T06:55:11;12.87;;;7.40;;
10144;SDS011;5113;41.822;23.564;2022-10-16T06:58:17;11.10;;;7.03;;
10144;SDS011;5113;41.822;23.564;2022-10-16T07:01:24;7.37;;;6.00;;
10144;SDS011;5113;41.822;23.564;2022-10-16T07:04:30;10.17;;;7.20;;
10144;SDS011;5113;41.822;23.564;2022-10-16T07:07:36;11.07;;;8.47;;
10144;SDS011;5113;41.822;23.564;2022-10-16T07:10:44;11.67;;;7.53;;
10144;SDS011;5113;41.822;23.564;2022-10-16T07:13:50;9.53;;;6.70;;
10144;SDS011;5113;41.822;23.564;2022-10-16T07:16:59;15.67;;;8.40;;
10144;SDS011;5113;41.822;23.564;2022-10-16T07:20:06;13.80;;;6.07;;
10144;SDS011;5113;41.822;23.564;2022-10-16T07:23:13;10.30;;;7.10;;
10144;SDS011;5113;41.822;23.564;2022-10-16T07:26:20;10.13;;;7.80;;
10144;SDS011;5113;41.822;23.564;2022-10-16T07:29:27;11.07;;;6.77;;
10144;SDS011;5113;41.822;23.564;2022-10-16T07:32:33;16.87;;;8.97;;
10144;SDS011;5113;41.822;23.564;2022-10-16T07:35:46;9.60;;;7.33;;
10144;SDS011;5113;41.822;23.564;2022-10-16T07:38:53;7.47;;;5.90;;
10144;SDS011;5113;41.822;23.564;2022-10-16T07:42:04;7.40;;;5.63;;
10144;SDS011;5113;41.822;23.564;2022-10-16T07:45:12;9.47;;;6.00;;
10144;SDS011;5113;41.822;23.564;2022-10-16T07:48:18;10.37;;;5.27;;
10144;SDS011;5113;41.822;23.564;2022-10-16T07:51:25;6.17;;;4.87;;
10144;SDS011;5113;41.822;23.564;2022-10-16T07:54:32;6.93;;;5.40;;
10144;SDS011;5113;41.822;23.564;2022-10-16T07:57:39;5.73;;;5.07;;
10144;SDS011;5113;41.822;23.564;2022-10-16T08:00:45;7.80;;;5.13;;
10144;SDS011;5113;41.822;23.564;2022-10-16T08:03:52;6.90;;;5.00;;
10144;SDS011;5113;41.822;23.564;2022-10-16T08:06:58;6.40;;;5.13;;
10144;SDS011;5113;41.822;23.564;2022-10-16T08:10:05;7.73;;;5.13;;
10144;SDS011;5113;41.822;23.564;2022-10-16T08:13:13;8.47;;;6.57;;
10144;SDS011;5113;41.822;23.564;2022-10-16T08:16:20;13.23;;;4.70;;
10144;SDS011;5113;41.822;23.564;2022-10-16T08:19:26;14.07;;;4.93;;
10144;SDS011;5113;41.822;23.564;2022-10-16T08:22:32;9.90;;;4.77;;
10144;SDS011;5113;41.822;23.564;2022-10-16T08:25:38;9.53;;;5.17;;
10144;SDS011;5113;41.822;23.564;2022-10-16T08:28:46;6.23;;;4.87;;
10144;SDS011;5113;41.822;23.564;2022-10-16T08:31:55;4.97;;;3.57;;
10144;SDS011;5113;41.822;23.564;2022-10-16T08:35:01;5.33;;;4.20;;
10144;SDS011;5113;41.822;23.564;2022-10-16T08:38:08;5.97;;;5.37;;
10144;SDS011;5113;41.822;23.564;2022-10-16T08:41:20;5.07;;;4.67;;
10144;SDS011;5113;41.822;23.564;2022-10-16T08:44:58;5.07;;;4.53;;
10144;SDS011;5113;41.822;23.564;2022-10-16T08:48:16;4.83;;;4.27;;
10144;SDS011;5113;41.822;23.564;2022-10-16T08:51:28;4.23;;;3.83;;
10144;SDS011;5113;41.822;23.564;2022-10-16T08:54:37;6.03;;;4.50;;
10144;SDS011;5113;41.822;23.564;2022-10-16T08:57:49;8.93;;;5.73;;
10144;SDS011;5113;41.822;23.564;2022-10-16T09:00:58;6.33;;;3.40;;
10144;SDS011;5113;41.822;23.564;2022-10-16T09:07:56;5.23;;;4.37;;
10144;SDS011;5113;41.822;23.564;2022-10-16T09:11:13;4.37;;;3.93;;
10144;SDS011;5113;41.822;23.564;2022-10-16T09:14:32;4.13;;;3.83;;
10144;SDS011;5113;41.822;23.564;2022-10-16T09:17:54;5.13;;;3.93;;
10144;SDS011;5113;41.822;23.564;2022-10-16T09:21:08;4.77;;;4.27;;
10144;SDS011;5113;41.822;23.564;2022-10-16T09:24:20;5.23;;;3.77;;
10144;SDS011;5113;41.822;23.564;2022-10-16T09:27:32;13.63;;;8.40;;
10144;SDS011;5113;41.822;23.564;2022-10-16T09:30:39;3.77;;;3.47;;
10144;SDS011;5113;41.822;23.564;2022-10-16T09:33:48;5.03;;;4.30;;
10144;SDS011;5113;41.822;23.564;2022-10-16T09:36:58;8.00;;;3.60;;
10144;SDS011;5113;41.822;23.564;2022-10-16T09:40:11;6.83;;;4.37;;
10144;SDS011;5113;41.822;23.564;2022-10-16T09:43:20;6.27;;;4.00;;
10144;SDS011;5113;41.822;23.564;2022-10-16T09:46:32;5.23;;;4.07;;
10144;SDS011;5113;41.822;23.564;2022-10-16T09:49:49;5.73;;;3.83;;
10144;SDS011;5113;41.822;23.564;2022-10-16T09:53:04;5.00;;;3.83;;
10144;SDS011;5113;41.822;23.564;2022-10-16T09:56:11;3.67;;;3.30;;
10144;SDS011;5113;41.822;23.564;2022-10-16T09:59:27;4.93;;;3.30;;
10144;SDS011;5113;41.822;23.564;2022-10-16T10:02:35;4.73;;;3.70;;
10144;SDS011;5113;41.822;23.564;2022-10-16T10:05:47;3.30;;;3.10;;
10144;SDS011;5113;41.822;23.564;2022-10-16T10:08:56;3.87;;;3.43;;
10144;SDS011;5113;41.822;23.564;2022-10-16T10:12:04;3.30;;;3.10;;
10144;SDS011;5113;41.822;23.564;2022-10-16T10:15:12;3.50;;;3.20;;
10144;SDS011;5113;41.822;23.564;2022-10-16T10:18:25;5.53;;;3.67;;
10144;SDS011;5113;41.822;23.564;2022-10-16T10:21:33;3.63;;;3.37;;
10144;SDS011;5113;41.822;23.564;2022-10-16T10:24:43;3.30;;;3.00;;
10144;SDS011;5113;41.822;23.564;2022-10-16T10:27:53;3.47;;;3.13;;
10144;SDS011;5113;41.822;23.564;2022-10-16T10:31:13;3.60;;;3.30;;
10144;SDS011;5113;41.822;23.564;2022-10-16T10:34:34;3.73;;;2.87;;
10144;SDS011;5113;41.822;23.564;2022-10-16T10:37:54;5.40;;;3.30;;
10144;SDS011;5113;41.822;23.564;2022-10-16T10:41:23;3.70;;;3.20;;
10144;SDS011;5113;41.822;23.564;2022-10-16T10:44:50;2.77;;;2.60;;
10144;SDS011;5113;41.822;23.564;2022-10-16T10:48:12;3.07;;;2.87;;
10144;SDS011;5113;41.822;23.564;2022-10-16T10:51:28;3.13;;;2.83;;
10144;SDS011;5113;41.822;23.564;2022-10-16T10:54:45;2.10;;;2.00;;
10144;SDS011;5113;41.822;23.564;2022-10-16T10:58:05;2.50;;;2.30;;
10144;SDS011;5113;41.822;23.564;2022-10-16T11:01:39;2.83;;;2.53;;
10144;SDS011;5113;41.822;23.564;2022-10-16T11:05:02;3.10;;;2.80;;
10144;SDS011;5113;41.822;23.564;2022-10-16T11:08:26;2.80;;;2.60;;
10144;SDS011;5113;41.822;23.564;2022-10-16T11:11:40;3.27;;;2.97;;
10144;SDS011;5113;41.822;23.564;2022-10-16T11:14:50;3.00;;;2.60;;
10144;SDS011;5113;41.822;23.564;2022-10-16T11:18:04;5.57;;;2.30;;
10144;SDS011;5113;41.822;23.564;2022-10-16T11:21:14;2.40;;;2.20;;
10144;SDS011;5113;41.822;23.564;2022-10-16T11:24:27;2.83;;;2.50;;
10144;SDS011;5113;41.822;23.564;2022-10-16T11:27:43;2.10;;;2.00;;
10144;SDS011;5113;41.822;23.564;2022-10-16T11:30:58;2.53;;;2.33;;
10144;SDS011;5113;41.822;23.564;2022-10-16T11:34:11;2.07;;;1.97;;
10144;SDS011;5113;41.822;23.564;2022-10-16T11:37:23;2.37;;;2.27;;
10144;SDS011;5113;41.822;23.564;2022-10-16T11:40:33;2.30;;;2.20;;
10144;SDS011;5113;41.822;23.564;2022-10-16T11:43:50;2.40;;;2.30;;
10144;SDS011;5113;41.822;23.564;2022-10-16T11:47:08;2.30;;;2.20;;
10144;SDS011;5113;41.822;23.564;2022-10-16T11:50:43;3.43;;;2.63;;
10144;SDS011;5113;41.822;23.564;2022-10-16T11:53:56;3.93;;;3.63;;
10144;SDS011;5113;41.822;23.564;2022-10-16T11:57:08;2.37;;;2.27;;
10144;SDS011;5113;41.822;23.564;2022-10-16T12:00:22;2.40;;;2.20;;
10144;SDS011;5113;41.822;23.564;2022-10-16T12:03:32;3.50;;;2.33;;
10144;SDS011;5113;41.822;23.564;2022-10-16T12:06:42;2.63;;;2.43;;
10144;SDS011;5113;41.822;23.564;2022-10-16T12:09:50;2.23;;;2.13;;
10144;SDS011;5113;41.822;23.564;2022-10-16T12:12:56;4.20;;;3.17;;
10144;SDS011;5113;41.822;23.564;2022-10-16T12:16:19;2.90;;;2.70;;
10144;SDS011;5113;41.822;23.564;2022-10-16T12:19:27;2.30;;;2.20;;
10144;SDS011;5113;41.822;23.564;2022-10-16T12:22:35;3.67;;;2.70;;
10144;SDS011;5113;41.822;23.564;2022-10-16T12:25:44;2.57;;;2.47;;
10144;SDS011;5113;41.822;23.564;2022-10-16T12:29:10;2.87;;;2.50;;
10144;SDS011;5113;41.822;23.564;2022-10-16T12:32:24;2.83;;;2.57;;
10144;SDS011;5113;41.822;23.564;2022-10-16T12:35:51;1.97;;;1.87;;
10144;SDS011;5113;41.822;23.564;2022-10-16T12:39:02;2.20;;;2.10;;
10144;SDS011;5113;41.822;23.564;2022-10-16T12:45:40;3.10;;;2.90;;
10144;SDS011;5113;41.822;23.564;2022-10-16T12:48:48;3.23;;;3.03;;
10144;SDS011;5113;41.822;23.564;2022-10-16T12:52:23;3.13;;;2.90;;
10144;SDS011;5113;41.822;23.564;2022-10-16T12:55:35;4.07;;;3.77;;
10144;SDS011;5113;41.822;23.564;2022-10-16T12:58:58;2.97;;;2.73;;
10144;SDS011;5113;41.822;23.564;2022-10-16T13:02:20;3.70;;;3.40;;
10144;SDS011;5113;41.822;23.564;2022-10-16T13:05:51;2.93;;;2.73;;
10144;SDS011;5113;41.822;23.564;2022-10-16T13:09:13;4.07;;;3.13;;
10144;SDS011;5113;41.822;23.564;2022-10-16T13:12:47;3.00;;;2.80;;
10144;SDS011;5113;41.822;23.564;2022-10-16T13:16:08;3.87;;;3.57;;
10144;SDS011;5113;41.822;23.564;2022-10-16T13:19:24;2.90;;;2.70;;
10144;SDS011;5113;41.822;23.564;2022-10-16T13:22:38;3.93;;;3.03;;
10144;SDS011;5113;41.822;23.564;2022-10-16T13:25:58;4.47;;;3.17;;
10144;SDS011;5113;41.822;23.564;2022-10-16T13:29:14;5.17;;;3.40;;
10144;SDS011;5113;41.822;23.564;2022-10-16T13:32:21;2.97;;;2.77;;
10144;SDS011;5113;41.822;23.564;2022-10-16T13:35:28;3.73;;;3.37;;
10144;SDS011;5113;41.822;23.564;2022-10-16T13:38:37;3.03;;;2.60;;
10144;SDS011;5113;41.822;23.564;2022-10-16T13:41:43;2.80;;;2.60;;
10144;SDS011;5113;41.822;23.564;2022-10-16T13:44:51;3.13;;;2.87;;
10144;SDS011;5113;41.822;23.564;2022-10-16T13:48:01;4.60;;;3.90;;
10144;SDS011;5113;41.822;23.564;2022-10-16T13:51:12;5.33;;;4.53;;
10144;SDS011;5113;41.822;23.564;2022-10-16T13:54:21;5.33;;;4.20;;
10144;SDS011;5113;41.822;23.564;2022-10-16T13:57:28;3.40;;;3.10;;
10144;SDS011;5113;41.822;23.564;2022-10-16T14:00:35;4.00;;;3.70;;
10144;SDS011;5113;41.822;23.564;2022-10-16T14:03:46;7.20;;;5.53;;
10144;SDS011;5113;41.822;23.564;2022-10-16T14:06:53;6.93;;;6.23;;
10144;SDS011;5113;41.822;23.564;2022-10-16T14:10:03;8.07;;;6.30;;
10144;SDS011;5113;41.822;23.564;2022-10-16T14:13:12;12.93;;;7.93;;
10144;SDS011;5113;41.822;23.564;2022-10-16T14:16:23;15.70;;;9.63;;
10144;SDS011;5113;41.822;23.564;2022-10-16T14:19:34;5.17;;;4.50;;
10144;SDS011;5113;41.822;23.564;2022-10-16T14:22:40;6.30;;;5.67;;
10144;SDS011;5113;41.822;23.564;2022-10-16T14:25:48;7.93;;;4.40;;
10144;SDS011;5113;41.822;23.564;2022-10-16T14:29:01;2.43;;;2.23;;
10144;SDS011;5113;41.822;23.564;2022-10-16T14:32:20;3.10;;;2.80;;
10144;SDS011;5113;41.822;23.564;2022-10-16T14:35:29;7.67;;;5.40;;
10144;SDS011;5113;41.822;23.564;2022-10-16T14:38:38;2.60;;;2.50;;
10144;SDS011;5113;41.822;23.564;2022-10-16T14:41:47;4.67;;;3.93;;
10144;SDS011;5113;41.822;23.564;2022-10-16T14:44:55;3.77;;;3.43;;
10144;SDS011;5113;41.822;23.564;2022-10-16T14:48:03;5.17;;;3.60;;
10144;SDS011;5113;41.822;23.564;2022-10-16T14:51:23;4.20;;;3.80;;
10144;SDS011;5113;41.822;23.564;2022-10-16T14:54:29;4.03;;;3.17;;
10144;SDS011;5113;41.822;23.564;2022-10-16T14:57:37;3.30;;;3.00;;
10144;SDS011;5113;41.822;23.564;2022-10-16T15:00:44;4.70;;;3.73;;
10144;SDS011;5113;41.822;23.564;2022-10-16T15:03:50;5.17;;;4.00;;
10144;SDS011;5113;41.822;23.564;2022-10-16T15:07:00;11.27;;;6.53;;
10144;SDS011;5113;41.822;23.564;2022-10-16T15:10:06;26.37;;;11.40;;
10144;SDS011;5113;41.822;23.564;2022-10-16T15:13:14;16.17;;;9.03;;
10144;SDS011;5113;41.822;23.564;2022-10-16T15:16:20;10.80;;;4.87;;
10144;SDS011;5113;41.822;23.564;2022-10-16T15:19:26;18.47;;;12.63;;
10144;SDS011;5113;41.822;23.564;2022-10-16T15:22:33;46.40;;;24.90;;
10144;SDS011;5113;41.822;23.564;2022-10-16T15:25:41;43.10;;;24.47;;
10144;SDS011;5113;41.822;23.564;2022-10-16T15:28:49;32.80;;;17.13;;
10144;SDS011;5113;41.822;23.564;2022-10-16T15:31:56;15.33;;;11.20;;
10144;SDS011;5113;41.822;23.564;2022-10-16T15:35:02;15.93;;;11.03;;
10144;SDS011;5113;41.822;23.564;2022-10-16T15:38:11;12.93;;;9.23;;
10144;SDS011;5113;41.822;23.564;2022-10-16T15:41:18;23.53;;;13.47;;
10144;SDS011;5113;41.822;23.564;2022-10-16T15:44:25;28.17;;;14.30;;
10144;SDS011;5113;41.822;23.564;2022-10-16T15:47:34;19.30;;;11.53;;
10144;SDS011;5113;41.822;23.564;2022-10-16T15:50:45;35.17;;;17.17;;
10144;SDS011;5113;41.822;23.564;2022-10-16T15:53:52;97.27;;;45.23;;
10144;SDS011;5113;41.822;23.564;2022-10-16T15:56:58;33.27;;;20.67;;
10144;SDS011;5113;41.822;23.564;2022-10-16T16:00:07;26.77;;;15.43;;
10144;SDS011;5113;41.822;23.564;2022-10-16T16:03:15;65.30;;;23.83;;
10144;SDS011;5113;41.822;23.564;2022-10-16T16:06:21;62.83;;;28.20;;
10144;SDS011;5113;41.822;23.564;2022-10-16T16:09:28;83.47;;;41.73;;
10144;SDS011;5113;41.822;23.564;2022-10-16T16:12:34;165.97;;;63.83;;
10144;SDS011;5113;41.822;23.564;2022-10-16T16:15:42;99.70;;;37.00;;
10144;SDS011;5113;41.822;23.564;2022-10-16T16:18:48;67.60;;;27.97;;
10144;SDS011;5113;41.822;23.564;2022-10-16T16:21:59;72.30;;;35.10;;
10144;SDS011;5113;41.822;23.564;2022-10-16T16:25:05;242.90;;;91.43;;
10144;SDS011;5113;41.822;23.564;2022-10-16T16:28:12;82.73;;;34.37;;
10144;SDS011;5113;41.822;23.564;2022-10-16T16:31:20;137.77;;;57.43;;
10144;SDS011;5113;41.822;23.564;2022-10-16T16:34:29;124.80;;;52.67;;
10144;SDS011;5113;41.822;23.564;2022-10-16T16:37:35;86.47;;;40.17;;
10144;SDS011;5113;41.822;23.564;2022-10-16T16:40:41;65.23;;;30.83;;
10144;SDS011;5113;41.822;23.564;2022-10-16T16:43:48;47.43;;;23.37;;
10144;SDS011;5113;41.822;23.564;2022-10-16T16:46:56;75.03;;;36.43;;
10144;SDS011;5113;41.822;23.564;2022-10-16T16:50:02;76.67;;;37.20;;
10144;SDS011;5113;41.822;23.564;2022-10-16T16:53:11;88.60;;;42.67;;
10144;SDS011;5113;41.822;23.564;2022-10-16T16:56:17;195.20;;;92.87;;
10144;SDS011;5113;41.822;23.564;2022-10-16T16:59:24;113.47;;;49.77;;
10144;SDS011;5113;41.822;23.564;2022-10-16T17:02:32;107.93;;;45.80;;
10144;SDS011;5113;41.822;23.564;2022-10-16T17:05:38;137.80;;;56.33;;
10144;SDS011;5113;41.822;23.564;2022-10-16T17:08:45;143.37;;;52.07;;
10144;SDS011;5113;41.822;23.564;2022-10-16T17:11:51;151.70;;;57.20;;
10144;SDS011;5113;41.822;23.564;2022-10-16T17:14:58;118.20;;;45.83;;
10144;SDS011;5113;41.822;23.564;2022-10-16T17:18:05;136.30;;;49.77;;
10144;SDS011;5113;41.822;23.564;2022-10-16T17:21:11;78.23;;;37.83;;
10144;SDS011;5113;41.822;23.564;2022-10-16T17:24:18;133.13;;;57.90;;
10144;SDS011;5113;41.822;23.564;2022-10-16T17:27:24;98.63;;;43.50;;
10144;SDS011;5113;41.822;23.564;2022-10-16T17:30:31;114.47;;;46.67;;
10144;SDS011;5113;41.822;23.564;2022-10-16T17:33:40;97.80;;;38.30;;
10144;SDS011;5113;41.822;23.564;2022-10-16T17:36:47;72.60;;;34.00;;
10144;SDS011;5113;41.822;23.564;2022-10-16T17:39:53;50.13;;;26.33;;
10144;SDS011;5113;41.822;23.564;2022-10-16T17:42:59;57.53;;;27.57;;
10144;SDS011;5113;41.822;23.564;2022-10-16T17:46:06;42.77;;;19.23;;
10144;SDS011;5113;41.822;23.564;2022-10-16T17:49:14;26.40;;;12.97;;
10144;SDS011;5113;41.822;23.564;2022-10-16T17:52:21;36.93;;;16.13;;
10144;SDS011;5113;41.822;23.564;2022-10-16T17:55:28;106.47;;;39.47;;
10144;SDS011;5113;41.822;23.564;2022-10-16T17:58:34;215.83;;;68.83;;
10144;SDS011;5113;41.822;23.564;2022-10-16T18:01:40;188.80;;;62.60;;
10144;SDS011;5113;41.822;23.564;2022-10-16T18:04:51;175.37;;;61.17;;
10144;SDS011;5113;41.822;23.564;2022-10-16T18:07:57;125.37;;;46.83;;
10144;SDS011;5113;41.822;23.564;2022-10-16T18:11:03;96.27;;;35.70;;
10144;SDS011;5113;41.822;23.564;2022-10-16T18:14:11;75.57;;;28.80;;
10144;SDS011;5113;41.822;23.564;2022-10-16T18:17:19;83.43;;;34.33;;
10144;SDS011;5113;41.822;23.564;2022-10-16T18:20:26;69.80;;;31.87;;
10144;SDS011;5113;41.822;23.564;2022-10-16T18:23:32;77.63;;;31.00;;
10144;SDS011;5113;41.822;23.564;2022-10-16T18:26:40;66.27;;;26.67;;
10144;SDS011;5113;41.822;23.564;2022-10-16T18:29:47;38.97;;;22.07;;
10144;SDS011;5113;41.822;23.564;2022-10-16T18:32:53;46.10;;;17.23;;
10144;SDS011;5113;41.822;23.564;2022-10-16T18:36:01;36.30;;;19.07;;
10144;SDS011;5113;41.822;23.564;2022-10-16T18:39:09;28.13;;;15.40;;
10144;SDS011;5113;41.822;23.564;2022-10-16T18:42:15;24.53;;;12.30;;
10144;SDS011;5113;41.822;23.564;2022-10-16T18:45:22;21.80;;;14.07;;
10144;SDS011;5113;41.822;23.564;2022-10-16T18:48:28;22.43;;;11.40;;
10144;SDS011;5113;41.822;23.564;2022-10-16T18:51:37;24.37;;;12.13;;
10144;SDS011;5113;41.822;23.564;2022-10-16T18:54:45;16.43;;;11.73;;